Pagrindinis puslapis
METAR-TAF:

METAR-TAF

Oro uostai :

Senendedžas, Iranas

platuma: 35-20N, ilguma: 047-00E, Aukštis: 1373 m

Dabartinis oras

Ataskaita buvo paskelbta 11 valandos ir 34 minutes, ne 11:00 UTC
Vėjas 4 kt iš Šiaurės
Temperatūra 32°C
Drėgmė 12%
Slėgis 1016 hPa
Matomumas 10 km arba daugiau
Išsisklaidę debesys ne aukštis 4000 ft

METAR: OICS 271100Z 01004KT 9999 SCT040 32/M01 Q1015 A2999

Laikas: 02:04 (22:34 UTC)


TAF: trūkstamas

Orai ataskaitas ir orų prognozės (METAR, TAF).

turimą stotys yra geltonos ir raudonos taškus žemėlapyje.

Perkelti pele per norėdami pamatyti stoties vardą.

Tada spustelėkite, norėdami matyti oro stebėjimo ir prognozės.

Norėdami pakeisti žemėlapį: spustelėkite ant žalios mygtukų su juodo kryžiaus žemyn,; žalią mygtuką su brūkšneliu, jei norite nutolinti; arba žalių rodyklių gretimoms žemėlapius.


METAR-TAF: